Time;durP1;ratioP1;P1;durP2;ratioP2;P2;SDS_P1;SDS_P2;PMS_P1;PMS_P2;Temp;Humidity;BMP_temperature;BMP_pressure;BME280_temperature;BME280_humidity;BME280_pressure;Samples;Min_cycle;Max_cycle;Signal;HPM_P1;HPM_P2
2023/10/20 00:02:17;;;;;;;13.17;9.27;;;14.50;99.90;;;;;;5076710;28;20214;-50
2023/10/20 00:04:44;;;;;;;14.70;9.70;;;14.50;99.90;;;;;;5095217;28;20175;-51
2023/10/20 00:07:11;;;;;;;11.90;8.93;;;14.50;99.90;;;;;;5076835;28;20182;-49
2023/10/20 00:09:42;;;;;;;15.47;9.73;;;14.50;99.90;;;;;;5094697;28;20156;-50
2023/10/20 00:12:10;;;;;;;15.50;8.27;;;14.50;99.90;;;;;;5076557;28;20179;-49
2023/10/20 00:14:38;;;;;;;11.87;8.97;;;14.50;99.90;;;;;;5094850;28;20198;-50
2023/10/20 00:17:07;;;;;;;14.07;9.37;;;14.50;99.90;;;;;;5076651;28;20181;-49
2023/10/20 00:19:33;;;;;;;10.93;9.00;;;14.50;99.90;;;;;;5060632;28;20175;-49
2023/10/20 00:21:59;;;;;;;10.70;8.77;;;14.50;99.90;;;;;;5076474;28;20199;-51
2023/10/20 00:24:27;;;;;;;13.93;9.23;;;14.50;99.90;;;;;;5076472;28;20163;-51
2023/10/20 00:26:56;;;;;;;15.70;8.93;;;14.50;99.90;;;;;;5094612;28;20212;-50
2023/10/20 00:29:21;;;;;;;14.77;10.07;;;14.50;99.90;;;;;;5076605;28;20182;-51
2023/10/20 00:31:47;;;;;;;13.93;10.50;;;14.50;99.90;;;;;;5076247;28;20250;-49
2023/10/20 00:34:15;;;;;;;15.83;10.60;;;14.50;99.90;;;;;;5094328;28;20179;-49
2023/10/20 00:36:45;;;;;;;14.13;10.87;;;14.50;99.90;;;;;;5075549;28;20261;-49
2023/10/20 00:39:12;;;;;;;17.30;10.13;;;14.50;99.90;;;;;;5094166;28;20202;-49
2023/10/20 00:41:39;;;;;;;13.93;10.70;;;14.50;99.90;;;;;;5075957;28;20305;-49
2023/10/20 00:44:10;;;;;;;14.10;9.63;;;14.50;99.90;;;;;;5059484;28;20186;-50
2023/10/20 00:46:36;;;;;;;12.40;9.83;;;14.50;99.90;;;;;;5094042;28;20219;-50
2023/10/20 00:49:03;;;;;;;12.57;10.23;;;14.50;99.90;;;;;;5075882;28;20247;-50
2023/10/20 00:51:30;;;;;;;14.87;10.07;;;14.50;99.90;;;;;;5075752;28;20199;-49
2023/10/20 00:54:00;;;;;;;12.23;9.67;;;14.60;99.90;;;;;;5094321;28;20206;-51
2023/10/20 00:56:27;;;;;;;14.97;10.83;;;14.60;99.90;;;;;;5075789;28;20213;-50
2023/10/20 00:58:53;;;;;;;13.57;9.87;;;14.50;99.90;;;;;;5094154;28;20588;-52
2023/10/20 01:01:20;;;;;;;14.07;11.00;;;14.60;99.90;;;;;;5075252;28;20202;-50
2023/10/20 01:03:47;;;;;;;15.40;10.70;;;14.60;99.90;;;;;;5075709;28;20665;-49
2023/10/20 01:06:14;;;;;;;14.10;11.40;;;14.50;99.90;;;;;;5075672;28;20179;-50
2023/10/20 01:08:40;;;;;;;14.07;11.00;;;14.50;99.90;;;;;;5075633;28;20213;-50
2023/10/20 01:11:07;;;;;;;17.47;11.57;;;14.50;99.90;;;;;;5075598;28;20230;-50
2023/10/20 01:13:34;;;;;;;15.97;11.57;;;14.50;99.90;;;;;;5075622;28;20183;-49
2023/10/20 01:16:00;;;;;;;19.93;11.23;;;14.40;99.90;;;;;;5075814;28;20542;-51
2023/10/20 01:18:26;;;;;;;15.80;12.00;;;14.40;99.90;;;;;;5075500;28;20174;-51
2023/10/20 01:20:54;;;;;;;14.37;10.63;;;14.40;99.90;;;;;;5075738;28;20194;-49
2023/10/20 01:23:20;;;;;;;12.87;10.57;;;14.40;99.90;;;;;;5075401;28;20360;-50
2023/10/20 01:25:46;;;;;;;14.60;11.10;;;14.40;99.90;;;;;;5093489;28;20227;-49
2023/10/20 01:28:16;;;;;;;12.93;10.83;;;14.40;99.90;;;;;;5075402;28;20175;-49
2023/10/20 01:30:43;;;;;;;15.20;11.83;;;14.40;99.90;;;;;;5075257;28;20687;-50
2023/10/20 01:33:09;;;;;;;13.03;10.53;;;14.40;99.90;;;;;;5075385;28;20180;-51
2023/10/20 01:35:35;;;;;;;13.73;11.73;;;14.40;99.90;;;;;;5093531;28;20171;-50
2023/10/20 01:38:10;;;;;;;14.63;10.60;;;14.40;99.90;;;;;;5093369;28;20200;-51
2023/10/20 01:40:35;;;;;;;18.57;11.73;;;14.40;99.90;;;;;;5093399;28;20208;-50
2023/10/20 01:43:01;;;;;;;12.47;10.17;;;14.40;99.90;;;;;;5093433;28;20288;-50
2023/10/20 01:45:28;;;;;;;11.77;9.43;;;14.40;99.90;;;;;;5075498;28;20170;-50
2023/10/20 01:47:55;;;;;;;11.97;9.13;;;14.50;99.90;;;;;;5075234;28;20266;-50
2023/10/20 01:50:22;;;;;;;11.93;9.70;;;14.50;99.90;;;;;;5093380;28;20201;-51
2023/10/20 01:52:49;;;;;;;11.73;8.83;;;14.50;99.90;;;;;;5075145;28;20182;-50
2023/10/20 01:55:16;;;;;;;10.90;7.33;;;14.50;99.90;;;;;;5058582;28;20209;-51
2023/10/20 01:57:42;;;;;;;14.73;8.60;;;14.50;99.90;;;;;;5075263;28;20231;-51
2023/10/20 02:00:26;;;;;;;9.80;7.83;;;14.50;99.90;;;;;;5094428;28;20235;-51
2023/10/20 02:02:52;;;;;;;10.63;8.20;;;14.60;99.90;;;;;;5093678;28;20209;-51
2023/10/20 02:05:18;;;;;;;11.10;8.13;;;14.60;99.90;;;;;;5058446;28;20179;-50
2023/10/20 02:07:46;;;;;;;10.53;8.80;;;14.60;99.90;;;;;;5075039;28;20210;-50
2023/10/20 02:10:11;;;;;;;10.40;8.13;;;14.60;99.90;;;;;;5075023;28;20582;-50
2023/10/20 02:12:38;;;;;;;9.93;8.83;;;14.60;99.90;;;;;;5074998;28;20181;-49
2023/10/20 02:15:06;;;;;;;12.00;8.60;;;14.60;99.90;;;;;;5061644;28;20186;-49
2023/10/20 02:17:34;;;;;;;13.90;9.10;;;14.60;99.90;;;;;;5054504;28;20184;-49
2023/10/20 02:20:01;;;;;;;11.43;8.23;;;14.60;99.90;;;;;;5054283;28;20223;-48
2023/10/20 02:22:28;;;;;;;11.60;8.13;;;14.60;99.90;;;;;;5070612;28;20233;-50
2023/10/20 02:24:53;;;;;;;10.23;8.27;;;14.70;99.90;;;;;;5079502;28;20529;-49
2023/10/20 02:27:22;;;;;;;8.80;7.17;;;14.70;99.90;;;;;;5078523;28;20185;-51
2023/10/20 02:30:08;;;;;;;9.83;7.37;;;14.70;99.90;;;;;;5061951;28;20186;-49
2023/10/20 02:32:35;;;;;;;10.10;7.70;;;14.80;99.90;;;;;;5096975;28;20171;-51
2023/10/20 02:35:01;;;;;;;8.80;7.30;;;14.70;99.90;;;;;;5096655;28;20178;-51
2023/10/20 02:37:27;;;;;;;9.77;7.07;;;14.70;99.90;;;;;;5096653;28;20220;-50
2023/10/20 02:39:56;;;;;;;9.03;7.27;;;14.80;99.90;;;;;;5096829;28;20210;-49
2023/10/20 02:42:22;;;;;;;11.27;7.07;;;14.80;99.90;;;;;;5078046;28;20203;-49
2023/10/20 02:44:55;;;;;;;9.37;8.00;;;14.80;99.90;;;;;;5096467;28;20178;-49
2023/10/20 02:47:21;;;;;;;10.70;7.73;;;14.80;99.90;;;;;;5096400;28;20174;-49
2023/10/20 02:49:59;;;;;;;9.60;7.17;;;14.80;99.90;;;;;;5093795;28;20235;-51
2023/10/20 02:52:25;;;;;;;11.47;7.90;;;14.80;99.90;;;;;;5076495;28;20218;-49
2023/10/20 02:54:53;;;;;;;10.33;7.37;;;14.80;99.90;;;;;;5096248;28;20179;-50
2023/10/20 02:57:20;;;;;;;8.43;7.20;;;14.80;99.90;;;;;;5061502;28;20189;-50
2023/10/20 02:59:47;;;;;;;10.80;7.93;;;14.90;99.90;;;;;;5077874;28;20658;-50
2023/10/20 03:02:15;;;;;;;9.10;7.47;;;14.90;99.90;;;;;;5078776;28;20203;-50
2023/10/20 03:04:40;;;;;;;14.47;9.30;;;14.80;99.90;;;;;;5096242;28;20587;-50
2023/10/20 03:07:07;;;;;;;14.57;10.50;;;14.90;99.90;;;;;;5078183;28;20203;-50
2023/10/20 03:09:32;;;;;;;15.43;10.50;;;14.90;99.90;;;;;;5077750;28;20175;-50
2023/10/20 03:11:58;;;;;;;15.00;10.07;;;14.90;99.90;;;;;;5095863;28;20190;-51
2023/10/20 03:14:24;;;;;;;13.97;10.57;;;14.80;99.90;;;;;;5077722;28;20178;-51
2023/10/20 03:16:49;;;;;;;15.50;9.70;;;14.90;99.90;;;;;;5077693;28;20183;-50
2023/10/20 03:19:15;;;;;;;12.27;9.00;;;14.80;99.90;;;;;;5095788;28;20178;-49
2023/10/20 03:21:42;;;;;;;11.67;8.50;;;14.90;99.90;;;;;;5095619;28;20284;-50
2023/10/20 03:24:09;;;;;;;10.93;8.57;;;14.80;99.90;;;;;;5077370;28;20223;-50
2023/10/20 03:26:34;;;;;;;12.10;8.07;;;14.80;99.90;;;;;;5095937;28;20214;-49
2023/10/20 03:29:00;;;;;;;11.57;8.30;;;14.90;99.90;;;;;;5095667;28;20206;-49
2023/10/20 03:31:26;;;;;;;9.07;7.23;;;14.90;99.90;;;;;;5077478;28;20776;-50
2023/10/20 03:33:52;;;;;;;8.97;7.17;;;14.80;99.90;;;;;;5077379;28;20262;-49
2023/10/20 03:36:18;;;;;;;8.93;7.10;;;14.90;99.90;;;;;;5077359;28;20646;-49
2023/10/20 03:38:44;;;;;;;8.57;6.80;;;14.90;99.90;;;;;;5077240;28;20187;-50
2023/10/20 03:41:10;;;;;;;9.90;7.53;;;14.90;99.90;;;;;;5095628;28;20616;-49
2023/10/20 03:43:37;;;;;;;8.67;7.20;;;14.90;99.90;;;;;;5095307;28;20289;-50
2023/10/20 03:46:04;;;;;;;8.43;6.63;;;14.90;99.90;;;;;;5077019;28;20179;-50
2023/10/20 03:48:33;;;;;;;6.70;5.97;;;14.90;99.90;;;;;;5095212;28;20171;-51
2023/10/20 03:50:59;;;;;;;9.90;6.57;;;14.90;99.90;;;;;;5095186;28;20252;-51
2023/10/20 03:53:28;;;;;;;7.60;6.30;;;14.90;99.90;;;;;;5077001;28;20183;-49
2023/10/20 03:56:01;;;;;;;9.57;7.37;;;15.00;99.90;;;;;;5076904;28;20187;-49
2023/10/20 03:58:35;;;;;;;10.83;7.70;;;15.00;99.90;;;;;;5077213;28;20179;-49
2023/10/20 04:01:21;;;;;;;10.73;8.07;;;15.10;99.90;;;;;;5094468;28;20198;-49
2023/10/20 04:03:50;;;;;;;11.57;8.23;;;15.00;99.90;;;;;;5094966;28;20171;-49
2023/10/20 04:06:17;;;;;;;10.50;7.67;;;15.00;99.90;;;;;;5078866;28;20190;-50
2023/10/20 04:08:45;;;;;;;11.07;8.77;;;15.00;99.90;;;;;;5094385;28;20191;-49
2023/10/20 04:11:12;;;;;;;10.77;7.57;;;15.00;99.90;;;;;;5094761;28;20215;-49
2023/10/20 04:13:47;;;;;;;10.40;7.77;;;15.00;99.90;;;;;;5094753;28;20181;-49
2023/10/20 04:16:14;;;;;;;8.97;7.50;;;14.90;99.90;;;;;;5076487;28;20182;-49
2023/10/20 04:18:41;;;;;;;8.60;7.67;;;14.90;99.90;;;;;;5075852;28;20240;-50
2023/10/20 04:21:11;;;;;;;7.37;6.50;;;14.90;99.90;;;;;;5095089;28;20190;-50
2023/10/20 04:23:45;;;;;;;11.23;6.87;;;14.90;99.90;;;;;;5094676;28;20220;-49
2023/10/20 04:26:31;;;;;;;8.97;7.57;;;14.90;99.90;;;;;;5094556;28;20317;-51
2023/10/20 05:01:26;;;;;;;10.73;6.27;;;14.80;99.90;;;;;;5079510;28;20260;-49
2023/10/20 05:03:58;;;;;;;8.23;6.70;;;14.80;99.90;;;;;;5076244;28;20265;-50
2023/10/20 05:06:32;;;;;;;8.70;6.67;;;14.80;99.90;;;;;;5075595;28;20228;-47
2023/10/20 05:08:57;;;;;;;9.10;6.87;;;14.80;99.90;;;;;;5094171;28;20191;-47
2023/10/20 05:11:24;;;;;;;11.23;7.10;;;14.80;99.90;;;;;;5075615;28;20708;-48
2023/10/20 05:13:50;;;;;;;12.87;7.17;;;14.80;99.90;;;;;;5075573;28;20179;-47
2023/10/20 05:16:26;;;;;;;9.33;7.00;;;14.80;99.90;;;;;;5075738;28;20181;-46
2023/10/20 05:18:52;;;;;;;8.07;6.60;;;14.80;99.90;;;;;;5075781;28;20167;-47
2023/10/20 05:21:18;;;;;;;8.10;7.13;;;14.80;99.90;;;;;;5093668;28;20198;-47
2023/10/20 05:23:46;;;;;;;9.73;6.80;;;14.80;99.90;;;;;;5075479;28;20209;-47
2023/10/20 05:26:13;;;;;;;7.33;6.60;;;14.70;99.90;;;;;;5075554;28;20591;-49
2023/10/20 05:28:39;;;;;;;7.23;6.23;;;14.70;99.90;;;;;;5075493;28;20269;-47
2023/10/20 05:31:04;;;;;;;7.63;6.27;;;14.70;99.90;;;;;;5094468;28;20290;-45
2023/10/20 05:33:30;;;;;;;8.37;6.00;;;14.70;99.90;;;;;;5075450;28;20185;-47
2023/10/20 05:36:01;;;;;;;7.57;6.43;;;14.70;99.90;;;;;;5075366;28;20286;-48
2023/10/20 05:38:27;;;;;;;7.10;5.63;;;14.70;99.90;;;;;;5093598;28;20290;-46
2023/10/20 05:40:58;;;;;;;10.47;7.80;;;14.70;99.90;;;;;;5075483;28;20285;-46
2023/10/20 05:43:25;;;;;;;11.13;7.30;;;14.70;99.90;;;;;;5075111;28;20203;-47
2023/10/20 05:45:51;;;;;;;11.57;7.93;;;14.70;99.90;;;;;;5075307;28;20178;-46
2023/10/20 05:48:19;;;;;;;10.70;7.43;;;14.70;99.90;;;;;;5076508;28;20185;-46
2023/10/20 05:50:45;;;;;;;8.83;7.60;;;14.70;99.90;;;;;;5079262;28;20210;-48
2023/10/20 05:53:16;;;;;;;11.60;7.93;;;14.70;99.90;;;;;;5079261;28;20170;-46
2023/10/20 05:55:43;;;;;;;11.13;7.10;;;14.70;99.90;;;;;;5079603;28;20171;-47
2023/10/20 05:58:09;;;;;;;12.90;6.63;;;14.70;99.90;;;;;;5079426;28;20607;-47
2023/10/20 06:00:36;;;;;;;10.33;7.70;;;14.70;99.90;;;;;;5079479;28;20598;-47
2023/10/20 06:03:03;;;;;;;7.77;6.60;;;14.70;99.90;;;;;;5079167;28;20202;-48
2023/10/20 06:10:32;;;;;;;;;;;;;;;;;;;;;
2023/10/20 06:19:24;;;;;;;8.80;5.60;;;14.70;99.90;;;;;;4995677;28;20177;-50
2023/10/20 06:22:08;;;;;;;8.33;5.70;;;14.70;99.90;;;;;;4978519;28;20635;-49
2023/10/20 06:24:43;;;;;;;8.47;6.03;;;14.70;99.90;;;;;;5095767;28;20167;-47
2023/10/20 06:27:25;;;;;;;10.17;5.97;;;14.70;99.90;;;;;;5078595;28;20182;-48
2023/10/20 06:30:06;;;;;;;11.27;6.30;;;14.70;99.90;;;;;;5078630;28;20277;-47
2023/10/20 06:32:42;;;;;;;8.10;5.70;;;14.70;99.90;;;;;;5078532;28;20179;-48
2023/10/20 06:35:16;;;;;;;6.63;5.10;;;14.70;99.90;;;;;;5062712;28;20261;-50
2023/10/20 06:47:48;;;;;;;6.10;4.37;;;14.60;99.90;;;;;;5096566;28;20174;-47
2023/10/20 06:51:04;;;;;;;8.20;4.57;;;14.70;99.90;;;;;;5096747;28;20618;-46
2023/10/20 06:53:38;;;;;;;6.43;4.50;;;14.60;99.90;;;;;;5078090;28;20253;-50
2023/10/20 06:56:18;;;;;;;10.63;4.33;;;14.60;99.90;;;;;;5096378;28;20549;-47
2023/10/20 06:58:52;;;;;;;5.73;4.13;;;14.60;99.90;;;;;;5078258;28;20167;-47
2023/10/20 07:01:26;;;;;;;8.33;3.90;;;14.60;99.90;;;;;;5077677;28;20205;-47
2023/10/20 07:03:56;;;;;;;6.87;3.77;;;14.60;99.90;;;;;;5075348;28;20333;-47
2023/10/20 07:06:31;;;;;;;5.73;4.20;;;14.60;99.90;;;;;;5078376;28;20179;-47
2023/10/20 07:09:14;;;;;;;7.37;3.40;;;14.60;99.90;;;;;;5078565;28;20163;-46
2023/10/20 07:11:45;;;;;;;5.43;3.43;;;14.60;99.90;;;;;;5095936;28;20226;-48
2023/10/20 07:14:11;;;;;;;6.33;3.33;;;14.60;99.90;;;;;;5077547;28;20178;-48
2023/10/20 07:16:42;;;;;;;5.13;3.00;;;14.60;99.90;;;;;;5096059;28;20608;-47
2023/10/20 07:19:11;;;;;;;3.60;3.00;;;14.50;99.90;;;;;;5061406;28;20684;-46
2023/10/20 07:21:44;;;;;;;3.13;2.73;;;14.60;99.90;;;;;;5077699;28;20194;-48
2023/10/20 07:24:12;;;;;;;6.00;3.33;;;14.50;99.90;;;;;;5077816;28;20190;-49
2023/10/20 07:26:43;;;;;;;3.47;2.90;;;14.50;99.90;;;;;;5096300;28;20205;-48
2023/10/20 07:29:21;;;;;;;4.47;3.20;;;14.50;99.90;;;;;;5061401;28;20178;-48
2023/10/20 07:31:56;;;;;;;6.70;3.00;;;14.50;99.90;;;;;;5060878;28;20206;-47
2023/10/20 07:34:23;;;;;;;4.07;3.00;;;14.50;99.90;;;;;;5095888;28;20178;-47
2023/10/20 07:37:02;;;;;;;3.70;3.10;;;14.50;99.90;;;;;;5077351;28;20213;-48
2023/10/20 07:40:18;;;;;;;6.37;3.47;;;14.50;99.90;;;;;;5095333;28;20205;-49
2023/10/20 07:42:51;;;;;;;5.87;3.00;;;14.50;99.90;;;;;;5094847;28;20203;-49
2023/10/20 07:45:43;;;;;;;3.47;2.90;;;14.50;99.90;;;;;;5095460;28;20379;-49
2023/10/20 07:48:49;;;;;;;3.83;3.00;;;14.60;99.90;;;;;;5095919;28;20166;-49
2023/10/20 07:51:15;;;;;;;4.20;2.70;;;14.50;99.90;;;;;;5095326;28;20195;-48
2023/10/20 07:53:42;;;;;;;8.23;3.17;;;14.60;99.90;;;;;;5095058;28;20576;-47
2023/10/20 07:56:08;;;;;;;5.20;3.47;;;14.60;99.90;;;;;;5077951;28;20183;-50
2023/10/20 07:58:37;;;;;;;4.00;3.20;;;14.60;99.90;;;;;;5080516;28;20186;-50
2023/10/20 08:01:08;;;;;;;6.53;3.60;;;14.60;99.90;;;;;;5095266;28;20199;-47
2023/10/20 08:03:37;;;;;;;5.00;3.63;;;14.60;99.90;;;;;;5095070;28;20226;-47
2023/10/20 08:06:19;;;;;;;4.87;3.83;;;14.60;99.90;;;;;;5095214;28;20254;-49
2023/10/20 08:08:47;;;;;;;4.73;3.90;;;14.60;99.90;;;;;;5076841;28;20175;-49
2023/10/20 08:11:23;;;;;;;5.93;4.10;;;14.60;99.90;;;;;;5094427;28;20244;-48
2023/10/20 08:13:52;;;;;;;6.07;4.17;;;14.60;99.90;;;;;;5076412;28;20224;-47
2023/10/20 08:16:25;;;;;;;5.50;4.07;;;14.60;99.90;;;;;;5076053;28;20201;-48
2023/10/20 08:19:01;;;;;;;5.13;4.20;;;14.60;99.90;;;;;;5076609;28;20185;-47
2023/10/20 08:21:56;;;;;;;6.13;4.57;;;14.60;99.90;;;;;;5076329;28;20209;-49
2023/10/20 08:24:36;;;;;;;4.63;3.90;;;14.60;99.90;;;;;;5091780;28;20188;-48
2023/10/20 08:27:09;;;;;;;7.03;4.23;;;14.70;99.90;;;;;;5076620;28;20539;-47
2023/10/20 08:32:57;;;;;;;5.60;4.40;;;14.70;99.90;;;;;;5094667;28;20210;-48
2023/10/20 08:35:30;;;;;;;5.37;4.07;;;14.60;99.90;;;;;;5095198;28;20178;-50
2023/10/20 08:38:50;;;;;;;5.73;4.23;;;14.70;99.90;;;;;;5076853;28;20193;-48
2023/10/20 08:41:18;;;;;;;6.33;4.77;;;14.70;99.90;;;;;;5075222;28;20304;-49
2023/10/20 08:43:52;;;;;;;4.63;4.23;;;14.70;99.90;;;;;;5076048;28;20206;-49
2023/10/20 08:46:27;;;;;;;6.43;4.33;;;14.70;99.90;;;;;;5059919;28;20187;-49
2023/10/20 08:49:09;;;;;;;5.57;4.60;;;14.80;99.90;;;;;;5076096;28;20178;-47
2023/10/20 08:51:42;;;;;;;5.53;4.70;;;14.70;99.90;;;;;;5094088;28;20666;-48
2023/10/20 08:54:15;;;;;;;5.53;4.90;;;14.80;99.90;;;;;;5075865;28;20268;-46
2023/10/20 09:00:54;;;;;;;;;;;;;;;;;;;;;
2023/10/20 09:04:13;;;;;;;6.97;5.50;;;14.80;99.90;;;;;;5093231;28;20214;-47
2023/10/20 09:06:41;;;;;;;7.30;5.37;;;14.80;99.90;;;;;;5094131;28;20167;-48
2023/10/20 09:09:16;;;;;;;9.90;5.90;;;14.80;99.90;;;;;;5075616;28;20175;-50
2023/10/20 09:12:17;;;;;;;6.93;5.70;;;14.70;99.90;;;;;;5089530;28;20286;-47
2023/10/20 09:14:44;;;;;;;7.90;5.90;;;14.70;99.90;;;;;;5092216;28;20193;-47
2023/10/20 09:17:24;;;;;;;9.60;6.60;;;14.80;99.90;;;;;;5094512;28;20566;-47
2023/10/20 09:19:49;;;;;;;7.87;6.83;;;14.80;99.90;;;;;;5075751;28;20560;-48
2023/10/20 09:22:34;;;;;;;8.03;5.83;;;14.80;99.90;;;;;;5075275;28;20203;-47
2023/10/20 09:25:16;;;;;;;6.70;5.63;;;14.80;99.90;;;;;;5075528;28;20178;-51
2023/10/20 09:27:51;;;;;;;9.70;6.73;;;14.80;99.90;;;;;;5076207;28;20527;-49
2023/10/20 09:37:54;;;;;;;10.77;6.47;;;14.80;99.90;;;;;;5093871;28;20624;-48
2023/10/20 09:40:35;;;;;;;7.37;6.30;;;14.80;99.90;;;;;;5075139;28;20249;-49
2023/10/20 09:43:37;;;;;;;10.60;6.70;;;14.80;99.90;;;;;;5075301;28;20230;-49
2023/10/20 09:46:38;;;;;;;7.63;5.93;;;14.80;99.90;;;;;;5076333;28;20178;-48
2023/10/20 09:49:20;;;;;;;7.67;6.13;;;14.80;99.90;;;;;;5074623;28;20178;-49
2023/10/20 09:51:51;;;;;;;11.03;6.40;;;14.80;99.90;;;;;;5075237;28;20270;-48
2023/10/20 09:54:30;;;;;;;8.67;6.27;;;14.80;99.90;;;;;;5075251;28;20205;-50
2023/10/20 09:56:58;;;;;;;9.57;6.03;;;14.80;99.90;;;;;;5075196;28;20179;-49
2023/10/20 09:59:27;;;;;;;8.27;6.53;;;14.80;99.90;;;;;;5093326;28;20199;-47
2023/10/20 10:02:35;;;;;;;7.37;6.07;;;14.80;99.90;;;;;;5075156;28;20297;-49
2023/10/20 10:05:23;;;;;;;7.63;5.43;;;14.80;99.90;;;;;;5073287;28;20187;-47
2023/10/20 10:08:12;;;;;;;8.57;6.10;;;14.80;99.90;;;;;;5075317;28;20165;-49
2023/10/20 10:10:49;;;;;;;7.03;5.60;;;14.90;99.90;;;;;;5075106;28;20222;-49
2023/10/20 10:13:40;;;;;;;7.90;5.70;;;14.90;99.90;;;;;;5073815;28;20594;-48
2023/10/20 10:16:24;;;;;;;7.17;6.43;;;14.90;99.90;;;;;;5059538;28;20551;-49
2023/10/20 10:18:51;;;;;;;6.50;5.70;;;14.90;99.90;;;;;;5075132;28;20179;-48
2023/10/20 10:21:28;;;;;;;8.37;6.37;;;14.90;99.90;;;;;;5057974;28;20242;-48
2023/10/20 10:24:18;;;;;;;12.13;6.63;;;15.00;99.90;;;;;;5058238;28;20198;-48
2023/10/20 10:27:06;;;;;;;6.73;5.90;;;15.00;99.90;;;;;;5093090;28;20174;-50
2023/10/20 10:30:00;;;;;;;8.23;6.37;;;15.00;99.90;;;;;;5074608;28;20256;-49
2023/10/20 10:32:33;;;;;;;8.13;7.00;;;15.00;99.90;;;;;;5074942;28;20182;-49
2023/10/20 10:35:05;;;;;;;7.57;6.23;;;15.10;99.90;;;;;;5076278;28;20254;-49
2023/10/20 10:37:47;;;;;;;9.07;7.03;;;15.10;99.90;;;;;;5078501;28;20179;-49
2023/10/20 10:40:25;;;;;;;9.50;6.70;;;15.10;99.90;;;;;;5078572;28;20227;-49
2023/10/20 10:42:53;;;;;;;7.90;6.13;;;15.10;99.90;;;;;;5078983;28;20189;-48
2023/10/20 10:45:37;;;;;;;8.20;6.83;;;15.10;99.90;;;;;;5079173;28;20692;-48
2023/10/20 10:48:08;;;;;;;7.20;6.50;;;15.10;99.90;;;;;;5079364;28;20621;-48
2023/10/20 10:51:05;;;;;;;8.93;7.37;;;15.10;99.90;;;;;;5079405;28;20198;-47
2023/10/20 10:53:43;;;;;;;9.13;6.47;;;15.20;99.90;;;;;;5051999;28;20190;-49
2023/10/20 10:56:10;;;;;;;8.70;6.47;;;15.20;99.90;;;;;;5097021;28;20201;-48
2023/10/20 10:58:36;;;;;;;10.43;6.90;;;15.20;99.90;;;;;;5097576;28;20703;-48
2023/10/20 11:01:02;;;;;;;8.93;6.90;;;15.20;99.90;;;;;;5079226;28;20259;-48
2023/10/20 11:03:29;;;;;;;7.53;6.23;;;15.10;99.90;;;;;;5097829;28;20753;-51
2023/10/20 11:05:55;;;;;;;9.30;6.33;;;15.10;99.90;;;;;;5102775;28;20250;-47
2023/10/20 11:08:21;;;;;;;7.53;6.43;;;15.10;99.90;;;;;;5098636;28;20653;-50
2023/10/20 11:10:47;;;;;;;6.80;6.10;;;15.10;99.90;;;;;;5098531;28;20199;-49
2023/10/20 11:13:15;;;;;;;7.57;6.10;;;15.10;99.90;;;;;;5099961;28;20178;-51
2023/10/20 11:15:44;;;;;;;9.60;6.23;;;15.00;99.90;;;;;;5080484;28;20179;-49
2023/10/20 11:18:16;;;;;;;7.17;6.43;;;15.00;99.90;;;;;;5097076;28;20274;-50
2023/10/20 11:20:43;;;;;;;5.97;5.43;;;15.00;99.90;;;;;;5078558;28;20202;-48
2023/10/20 11:23:12;;;;;;;7.73;6.30;;;15.00;99.90;;;;;;5096086;28;20198;-49
2023/10/20 11:25:40;;;;;;;7.53;6.70;;;15.00;99.90;;;;;;5077976;28;20178;-47
2023/10/20 11:28:07;;;;;;;6.87;6.13;;;15.10;99.90;;;;;;5078187;28;20175;-47
2023/10/20 11:30:37;;;;;;;7.90;7.03;;;15.10;99.90;;;;;;5077374;28;20252;-49
2023/10/20 11:33:03;;;;;;;11.07;6.83;;;15.10;99.90;;;;;;5077459;28;20182;-51
2023/10/20 11:35:29;;;;;;;9.87;7.90;;;15.20;99.90;;;;;;5095958;28;20175;-50
2023/10/20 11:37:55;;;;;;;9.63;7.00;;;15.20;99.90;;;;;;5077591;28;20655;-49
2023/10/20 11:40:23;;;;;;;10.77;7.60;;;15.20;99.90;;;;;;5077160;28;20311;-49
2023/10/20 11:42:54;;;;;;;11.53;7.93;;;15.20;99.90;;;;;;5077107;28;20239;-51
2023/10/20 11:45:24;;;;;;;15.53;8.07;;;15.20;99.90;;;;;;5095201;28;20553;-50
2023/10/20 11:47:50;;;;;;;11.57;8.13;;;15.20;99.90;;;;;;5076587;28;20250;-51
2023/10/20 11:50:20;;;;;;;10.50;7.93;;;15.20;99.90;;;;;;5077018;28;20203;-49
2023/10/20 11:52:47;;;;;;;9.17;7.67;;;15.20;99.90;;;;;;5077031;28;20179;-52
2023/10/20 11:55:13;;;;;;;10.27;8.20;;;15.20;99.90;;;;;;5095091;28;20187;-50
2023/10/20 11:57:39;;;;;;;8.77;7.47;;;15.20;99.90;;;;;;5077255;28;20186;-49
2023/10/20 12:00:09;;;;;;;9.73;7.30;;;15.20;99.90;;;;;;5095239;28;20206;-50
2023/10/20 12:02:40;;;;;;;8.30;7.17;;;15.20;99.90;;;;;;5095252;28;20562;-51
2023/10/20 12:05:17;;;;;;;7.83;6.50;;;15.20;99.90;;;;;;5095150;28;20171;-52
2023/10/20 12:08:32;;;;;;;8.40;6.03;;;15.10;99.90;;;;;;5076971;28;20308;-50
2023/10/20 12:11:00;;;;;;;8.37;6.27;;;15.10;99.90;;;;;;5076648;28;20202;-51
2023/10/20 12:13:27;;;;;;;7.63;6.33;;;15.20;99.90;;;;;;5094927;28;20171;-49
2023/10/20 12:15:55;;;;;;;7.50;6.23;;;15.20;99.90;;;;;;5076802;28;20179;-50
2023/10/20 12:18:23;;;;;;;8.77;6.37;;;15.10;99.90;;;;;;5077114;28;20182;-50
2023/10/20 12:20:57;;;;;;;10.80;5.93;;;15.20;99.90;;;;;;5095277;28;20210;-50
2023/10/20 12:28:31;;;;;;;6.03;5.43;;;15.20;99.90;;;;;;5095421;28;20158;-49
2023/10/20 12:30:44;;;;;;;7.87;6.23;;;15.20;99.90;;;;;;5075971;28;20213;-50
2023/10/20 12:33:38;;;;;;;7.37;6.27;;;15.10;99.90;;;;;;5092904;28;20599;-50
2023/10/20 12:36:51;;;;;;;9.93;6.90;;;15.20;99.90;;;;;;5077197;28;20247;-50
2023/10/20 12:47:13;;;;;;;10.70;6.07;;;15.20;99.90;;;;;;5094530;28;20745;-49
2023/10/20 12:51:04;;;;;;;7.60;5.63;;;15.20;99.90;;;;;;5067933;28;20228;-50
2023/10/20 12:54:04;;;;;;;9.63;6.73;;;15.20;99.90;;;;;;5091472;28;20254;-48
2023/10/20 12:56:33;;;;;;;8.13;7.33;;;15.20;99.90;;;;;;5095631;28;20560;-48
2023/10/20 12:58:59;;;;;;;9.17;7.13;;;15.20;99.90;;;;;;5093997;28;20269;-47
2023/10/20 13:01:25;;;;;;;9.37;7.40;;;15.20;99.90;;;;;;5094099;28;20599;-46
2023/10/20 13:03:53;;;;;;;8.27;6.30;;;15.20;99.90;;;;;;5094224;28;20214;-47
2023/10/20 13:06:20;;;;;;;7.17;6.10;;;15.10;99.90;;;;;;5076234;28;20190;-47
2023/10/20 13:08:51;;;;;;;6.43;5.83;;;15.10;99.90;;;;;;5076110;28;20183;-46
2023/10/20 13:11:17;;;;;;;7.63;5.70;;;15.10;99.90;;;;;;5059609;28;20207;-47
2023/10/20 13:13:42;;;;;;;6.93;5.57;;;15.10;99.90;;;;;;5093971;28;20194;-46
2023/10/20 13:16:09;;;;;;;5.87;4.90;;;15.10;99.90;;;;;;5093958;28;20193;-47
2023/10/20 13:18:38;;;;;;;6.97;5.40;;;15.10;99.90;;;;;;5076336;28;20186;-46
2023/10/20 13:21:07;;;;;;;8.80;5.43;;;15.10;99.90;;;;;;5075915;28;20222;-48
2023/10/20 13:23:33;;;;;;;4.33;3.93;;;15.10;99.90;;;;;;5094296;28;20718;-47
2023/10/20 13:26:05;;;;;;;4.13;2.93;;;15.10;99.90;;;;;;5075859;28;20259;-46
2023/10/20 13:28:35;;;;;;;6.07;3.27;;;15.10;99.90;;;;;;5068183;28;20159;-47
2023/10/20 13:31:09;;;;;;;3.17;1.80;;;15.20;99.90;;;;;;5075691;28;20290;-49
2023/10/20 13:33:36;;;;;;;0.90;0.90;;;15.20;99.90;;;;;;5094207;28;20196;-47
2023/10/20 13:36:09;;;;;;;0.70;0.70;;;15.20;99.90;;;;;;5075699;28;20183;-48
2023/10/20 13:38:37;;;;;;;0.87;0.67;;;15.20;99.90;;;;;;5093957;28;20186;-47
2023/10/20 13:41:04;;;;;;;0.50;0.50;;;15.20;99.90;;;;;;5075838;28;20198;-48
2023/10/20 13:43:29;;;;;;;0.57;0.57;;;15.20;99.90;;;;;;5093573;28;20206;-48
2023/10/20 13:45:55;;;;;;;1.97;0.53;;;15.20;99.90;;;;;;5093516;28;20263;-47
2023/10/20 13:48:21;;;;;;;0.40;0.40;;;15.20;99.90;;;;;;5075387;28;20175;-48
2023/10/20 13:50:46;;;;;;;0.70;0.67;;;15.20;99.90;;;;;;5075290;28;20310;-48
2023/10/20 13:53:14;;;;;;;0.50;0.40;;;15.10;99.90;;;;;;5075299;28;20228;-48
2023/10/20 13:55:42;;;;;;;0.40;0.40;;;15.10;99.90;;;;;;5093838;28;20185;-46
2023/10/20 13:58:09;;;;;;;0.83;0.67;;;15.10;99.90;;;;;;5093539;28;20239;-49
2023/10/20 14:00:35;;;;;;;1.40;0.60;;;15.10;99.90;;;;;;5093301;28;20674;-48
2023/10/20 14:03:03;;;;;;;0.60;0.60;;;15.00;99.90;;;;;;5093526;28;20220;-47
2023/10/20 14:05:31;;;;;;;1.33;0.90;;;15.00;99.90;;;;;;5075150;28;20193;-48
2023/10/20 14:08:19;;;;;;;1.77;0.90;;;15.00;99.90;;;;;;5093462;28;20257;-49
2023/10/20 14:10:48;;;;;;;1.20;0.80;;;14.90;99.90;;;;;;5078101;28;20551;-49
2023/10/20 14:13:15;;;;;;;2.73;1.00;;;14.90;99.90;;;;;;5079393;28;20592;-51
2023/10/20 14:15:43;;;;;;;0.90;0.80;;;14.90;99.90;;;;;;5080948;28;20186;-50
2023/10/20 14:18:11;;;;;;;0.93;0.70;;;14.80;99.90;;;;;;5079047;28;20182;-50
2023/10/20 14:20:38;;;;;;;1.00;0.80;;;14.80;99.90;;;;;;5062749;28;20751;-51
2023/10/20 14:23:04;;;;;;;1.63;0.80;;;14.80;99.90;;;;;;5078647;28;20683;-49
2023/10/20 14:25:30;;;;;;;0.60;0.60;;;14.70;99.90;;;;;;5097194;28;20186;-49
2023/10/20 14:27:57;;;;;;;1.80;0.77;;;14.80;99.90;;;;;;5078641;28;20186;-48
2023/10/20 14:30:22;;;;;;;1.60;0.90;;;14.70;99.90;;;;;;5079712;28;20203;-50
2023/10/20 14:32:48;;;;;;;1.23;0.70;;;14.70;99.90;;;;;;5097692;28;20179;-50